Hunt Field
KLND : now visible

Airfield :











YOU CAN JOIN US ON...

 
LOGIN :

Register | Disclaimer

   EN    FR    IT 

 









Legend :    VFR   Marginal VFR   IFR   Intensive IFR   Very Intensive IFR
Visi :
Ceiling :
>= 8 km
>= 3000ft
5 to 8 km
1000 to 3000 ft
1500m to 5 km
500 to 1000 ft
800 to 1500m
200 to 500 ft
< 800m
< 200 ft
Symbols :   Thunderstorms  Fog  Heavy snow  Heavy precipitations  Wind > 20 kt






- Airport Elevation : 5586 ft


KLND - Hunt Field

CURRENT METAR :
  • 301553Z AUTO 00000KT 10SM CLR 04/M04 A3014 RMK AO2 SLP197 T00441039

EXPIRED METARs :
  • 301453Z AUTO 00000KT 10SM CLR 04/M06 A3014 RMK AO2 SLP196 T00441056 56003
  • 301353Z AUTO 33003KT 10SM CLR 00/M06 A3014 RMK AO2 SLP207 T00001056

TAF KLND
Valid from the 30 at 12:00 until the 31 at 12:00 UTC


301120Z 3012/3112 VRB05KT P6SM SKC
FM302000 25007KT P6SM SCT200
FM310000 25011KT P6SM SCT200
FM310300 25015G25KT P6SM SCT220
FM310900 30009KT P6SM FEW200
KZLC FIR / North America



MET'MAP, your aeronautical weather chart ! - Copyright ORBIFLY December 2007 - Disclaimer

ORBIFLY MET'MAP TEAM :

Programming & Development : Alexandra Zaïnal
Concept & original design : Baudouin d'Aumeries
Assistance for programming : Marc-Olivier Méhu
Technical & hardware support : Manuel Goepfert

Contact : metmap@orbifly.com




SOURCES & CREDITS :

   NOAA       Earth
Advisory